Time;durP1;ratioP1;P1;durP2;ratioP2;P2;SDS_P1;SDS_P2;PMS_P1;PMS_P2;Temp;Humidity;BMP_temperature;BMP_pressure;BME280_temperature;BME280_humidity;BME280_pressure;Samples;Min_cycle;Max_cycle;Signal;HPM_P1;HPM_P2
2021/01/08 00:00:12;;;;;;;26.48;15.07;;;;;;;0.64;89.40;98590.91;5024352;28;20065;-75
2021/01/08 00:02:37;;;;;;;29.73;15.75;;;;;;;0.65;89.21;98582.44;5022699;28;20122;-75
2021/01/08 00:05:03;;;;;;;32.08;15.30;;;;;;;0.71;89.27;98587.63;5024105;28;20037;-75
2021/01/08 00:07:33;;;;;;;22.92;12.80;;;;;;;0.67;89.00;98575.66;5024031;28;20029;-75
2021/01/08 00:09:59;;;;;;;21.13;11.80;;;;;;;0.68;88.10;98569.75;5018292;28;20116;-75
2021/01/08 00:12:24;;;;;;;28.80;13.55;;;;;;;0.52;89.25;98573.69;5023730;28;20397;-75
2021/01/08 00:14:49;;;;;;;30.77;15.70;;;;;;;0.33;90.73;98574.19;5023899;28;20033;-75
2021/01/08 00:17:14;;;;;;;27.25;14.63;;;;;;;0.27;90.69;98573.22;5017774;28;20029;-75
2021/01/08 00:19:40;;;;;;;27.90;13.18;;;;;;;0.44;91.33;98576.97;5018032;28;20060;-75
2021/01/08 00:22:05;;;;;;;29.75;15.25;;;;;;;0.50;90.98;98569.41;5017477;28;20037;-75
2021/01/08 00:24:31;;;;;;;46.17;19.05;;;;;;;0.36;90.74;98573.41;5018744;28;20040;-75
2021/01/08 00:27:02;;;;;;;30.25;14.18;;;;;;;0.52;89.53;98570.28;5023757;28;20449;-75
2021/01/08 00:29:27;;;;;;;23.25;11.52;;;;;;;0.54;89.59;98563.56;5023858;28;20029;-75
2021/01/08 00:31:53;;;;;;;23.98;13.60;;;;;;;0.49;90.84;98568.56;5038606;28;20514;-75
2021/01/08 00:34:18;;;;;;;18.50;11.50;;;;;;;0.45;89.84;98565.94;5019125;28;20036;-75
2021/01/08 00:36:49;;;;;;;22.80;14.02;;;;;;;0.46;89.55;98570.19;5023167;28;20021;-76
2021/01/08 00:39:15;;;;;;;18.05;11.73;;;;;;;0.71;90.66;98571.47;5018313;28;20036;-75
2021/01/08 00:41:40;;;;;;;19.10;12.38;;;;;;;0.45;90.82;98573.56;5023403;28;20037;-75
2021/01/08 00:44:05;;;;;;;18.95;11.80;;;;;;;0.40;90.58;98580.28;5018483;28;20025;-75
2021/01/08 00:46:32;;;;;;;19.30;11.77;;;;;;;0.23;91.06;98575.69;5023457;28;20064;-75
2021/01/08 00:48:57;;;;;;;21.58;13.05;;;;;;;0.45;91.76;98573.56;5017324;28;20178;-75
2021/01/08 00:51:24;;;;;;;22.83;13.82;;;;;;;0.47;90.58;98571.91;5023339;28;20482;-75
2021/01/08 00:53:49;;;;;;;21.42;12.30;;;;;;;0.50;90.59;98572.81;5017688;28;20111;-75
2021/01/08 00:56:21;;;;;;;20.42;12.55;;;;;;;0.62;91.09;98572.16;5018108;28;20025;-75
2021/01/08 00:58:47;;;;;;;23.45;12.27;;;;;;;0.71;91.82;98576.59;5023302;28;20056;-75
2021/01/08 07:02:25;;;;;;;13.60;9.07;;;;;;;0.65;88.63;98595.19;5332277;23;19945;-72
2021/01/08 07:04:51;;;;;;;14.93;7.97;;;;;;;0.58;87.38;98598.47;4952830;28;20466;-71
2021/01/08 07:07:24;;;;;;;15.88;8.90;;;;;;;0.34;86.69;98588.66;4954266;28;20110;-72
2021/01/08 07:09:50;;;;;;;15.80;9.60;;;;;;;0.29;87.71;98597.03;4953470;28;20035;-72
2021/01/08 07:12:15;;;;;;;14.93;8.63;;;;;;;0.39;88.89;98598.94;4935992;28;20024;-71
2021/01/08 07:14:41;;;;;;;14.75;7.90;;;;;;;0.68;87.40;98595.25;4934912;29;20031;-68
2021/01/08 07:17:15;;;;;;;14.52;8.05;;;;;;;0.56;86.45;98597.56;4935111;29;20115;-68
2021/01/08 07:19:42;;;;;;;11.82;7.97;;;;;;;0.58;86.07;98595.91;4935160;29;20118;-68
2021/01/08 07:22:07;;;;;;;12.68;7.85;;;;;;;0.59;87.96;98591.66;4935097;29;20377;-68
2021/01/08 07:24:39;;;;;;;12.93;7.75;;;;;;;0.66;85.63;98599.44;4935147;29;20039;-68
2021/01/08 07:27:22;;;;;;;17.60;7.78;;;;;;;0.65;85.19;98600.28;4934761;29;20036;-68
2021/01/08 07:29:51;;;;;;;11.90;7.82;;;;;;;0.64;85.31;98598.56;4934885;29;20166;-68
2021/01/08 07:32:37;;;;;;;10.10;7.20;;;;;;;0.61;85.71;98608.69;4934884;29;20405;-68
2021/01/08 07:35:24;;;;;;;17.33;7.95;;;;;;;0.63;87.13;98609.59;4935011;29;20062;-68
2021/01/08 07:37:56;;;;;;;11.02;7.30;;;;;;;0.77;86.18;98608.16;4934936;29;20481;-69
2021/01/08 07:40:22;;;;;;;11.02;7.68;;;;;;;0.77;87.16;98610.72;4934555;29;20035;-68
2021/01/08 07:42:58;;;;;;;18.63;8.52;;;;;;;0.83;87.49;98614.22;4934785;29;20023;-68
2021/01/08 07:45:43;;;;;;;12.85;7.82;;;;;;;0.89;84.97;98621.97;4934536;28;20032;-68
2021/01/08 07:48:19;;;;;;;10.18;6.43;;;;;;;0.85;85.14;98620.19;4934432;29;20128;-68
2021/01/08 07:51:01;;;;;;;9.77;5.95;;;;;;;0.93;83.14;98618.63;4934293;29;20501;-67
2021/01/08 07:53:50;;;;;;;14.20;8.05;;;;;;;0.88;86.08;98627.91;4934533;29;20066;-67
2021/01/08 07:56:23;;;;;;;11.57;7.45;;;;;;;0.88;85.82;98625.34;4934594;29;20405;-67
2021/01/08 07:59:04;;;;;;;12.13;7.80;;;;;;;0.96;85.57;98623.78;4934542;29;20032;-67
2021/01/08 08:01:31;;;;;;;12.23;7.32;;;;;;;0.85;85.75;98630.38;4937712;28;20074;-67
2021/01/08 08:04:08;;;;;;;12.13;7.38;;;;;;;0.79;87.69;98630.28;4934660;29;20439;-67
2021/01/08 08:06:39;;;;;;;12.02;7.90;;;;;;;0.71;87.41;98632.69;4934303;29;20054;-67
2021/01/08 08:09:06;;;;;;;10.40;7.43;;;;;;;0.95;86.65;98633.13;4934289;29;20035;-67
2021/01/08 08:11:34;;;;;;;14.77;9.10;;;;;;;0.88;86.32;98635.56;4933884;29;20035;-67
2021/01/08 08:14:01;;;;;;;14.05;8.90;;;;;;;0.86;87.11;98643.16;4934156;29;20027;-67
2021/01/08 08:16:36;;;;;;;12.57;7.57;;;;;;;0.92;86.82;98647.50;4934242;28;20126;-67
2021/01/08 08:19:03;;;;;;;11.43;7.90;;;;;;;1.04;86.14;98652.84;4934306;29;20031;-67
2021/01/08 08:21:29;;;;;;;19.38;7.40;;;;;;;1.04;86.35;98650.28;4933812;29;20039;-67
2021/01/08 08:23:55;;;;;;;11.13;7.30;;;;;;;1.02;85.61;98654.50;4934093;29;20039;-67
2021/01/08 08:26:22;;;;;;;15.05;6.95;;;;;;;1.28;84.05;98653.25;4934194;28;20062;-67
2021/01/08 08:29:00;;;;;;;13.02;7.55;;;;;;;1.20;83.78;98659.91;4933935;29;20031;-67
2021/01/08 08:31:30;;;;;;;10.60;7.00;;;;;;;1.32;83.26;98663.53;4934015;28;20027;-67
2021/01/08 08:33:57;;;;;;;11.48;7.10;;;;;;;1.28;84.34;98663.47;4933896;28;20034;-67
2021/01/08 08:36:28;;;;;;;11.82;7.75;;;;;;;1.45;83.66;98660.31;4934129;29;20037;-67
2021/01/08 08:38:58;;;;;;;11.93;6.93;;;;;;;1.42;82.57;98671.34;4932927;29;20036;-68
2021/01/08 08:41:24;;;;;;;10.55;6.90;;;;;;;1.48;82.76;98668.03;4933729;28;20564;-67
2021/01/08 08:44:02;;;;;;;12.68;7.80;;;;;;;1.43;82.95;98675.63;4933719;29;20028;-67
2021/01/08 08:46:47;;;;;;;11.07;7.30;;;;;;;1.34;83.27;98677.16;4933834;29;20075;-68
2021/01/08 08:49:15;;;;;;;12.77;7.35;;;;;;;1.47;83.36;98679.94;4932958;29;20131;-68
2021/01/08 08:51:53;;;;;;;9.45;6.53;;;;;;;1.29;82.78;98682.19;4932928;28;20477;-68
2021/01/08 08:54:19;;;;;;;10.32;7.53;;;;;;;1.46;83.80;98677.38;4933606;29;20444;-67
2021/01/08 08:57:02;;;;;;;10.15;6.28;;;;;;;1.36;82.73;98685.72;4933802;29;20404;-67
2021/01/08 08:59:46;;;;;;;10.32;7.10;;;;;;;1.22;83.56;98688.88;4933334;29;20038;-67
2021/01/08 09:02:20;;;;;;;10.00;6.05;;;;;;;1.38;83.43;98684.03;4933278;28;20040;-67
2021/01/08 09:04:56;;;;;;;10.10;7.03;;;;;;;1.53;83.16;98685.16;4932373;29;20032;-67
2021/01/08 09:07:40;;;;;;;11.98;6.25;;;;;;;1.40;82.63;98692.56;4933548;29;20114;-67
2021/01/08 09:10:22;;;;;;;10.38;6.70;;;;;;;1.13;83.78;98693.81;4932593;29;20066;-67
2021/01/08 09:12:59;;;;;;;9.63;6.15;;;;;;;1.26;84.03;98688.09;4933589;28;20031;-68
2021/01/08 09:15:34;;;;;;;12.43;6.38;;;;;;;1.37;84.67;98687.44;4933375;29;20039;-68
2021/01/08 09:18:12;;;;;;;10.50;6.97;;;;;;;1.39;85.18;98696.81;4932670;29;20507;-68
2021/01/08 09:20:49;;;;;;;9.15;6.45;;;;;;;1.45;85.73;98690.94;4932473;28;20039;-68
2021/01/08 09:23:15;;;;;;;9.68;6.18;;;;;;;1.54;84.20;98699.63;4933486;29;21083;-68
2021/01/08 09:25:40;;;;;;;9.68;6.78;;;;;;;1.43;85.15;98697.75;4933254;29;20038;-67
2021/01/08 09:28:05;;;;;;;11.30;6.53;;;;;;;1.34;85.60;98697.56;4934216;29;20622;-67
2021/01/08 09:30:31;;;;;;;12.88;6.68;;;;;;;1.12;87.51;98702.31;4933702;28;21428;-67
2021/01/08 09:32:56;;;;;;;15.32;9.70;;;;;;;1.08;87.66;98700.53;4931738;29;20544;-67
2021/01/08 09:35:22;;;;;;;16.80;8.52;;;;;;;0.93;87.79;98705.34;4933558;28;20425;-66
2021/01/08 09:37:48;;;;;;;29.05;13.77;;;;;;;0.86;89.00;98703.50;4933295;29;20119;-69
2021/01/08 09:40:16;;;;;;;27.20;13.80;;;;;;;0.56;89.60;98696.97;4933087;28;20036;-67
2021/01/08 09:42:42;;;;;;;43.45;15.73;;;;;;;0.29;91.84;98704.91;4932765;29;20031;-67
2021/01/08 09:45:24;;;;;;;35.33;15.80;;;;;;;0.16;92.51;98708.00;4933133;29;20106;-67
2021/01/08 09:47:51;;;;;;;36.92;15.50;;;;;;;0.17;92.06;98705.50;4932839;29;20027;-67
2021/01/08 09:50:27;;;;;;;36.33;16.50;;;;;;;0.41;90.38;98706.84;4933253;28;20066;-67
2021/01/08 09:52:57;;;;;;;32.90;15.27;;;;;;;0.80;89.69;98711.91;4932676;29;20055;-67
2021/01/08 09:55:24;;;;;;;14.02;8.30;;;;;;;0.95;88.31;98708.78;4933432;29;20780;-67
2021/01/08 09:57:58;;;;;;;13.10;8.27;;;;;;;0.99;88.69;98702.91;4932685;29;20401;-68
2021/01/08 10:00:38;;;;;;;18.02;8.00;;;;;;;1.09;87.34;98712.44;4932740;28;20489;-67
2021/01/08 10:03:05;;;;;;;27.23;11.55;;;;;;;1.14;89.01;98715.09;4933046;29;20035;-67
2021/01/08 10:05:35;;;;;;;27.88;12.73;;;;;;;1.15;88.19;98712.56;4932756;29;20038;-67
2021/01/08 10:08:03;;;;;;;16.80;9.65;;;;;;;1.27;87.45;98704.28;4931125;29;20114;-67
2021/01/08 10:10:28;;;;;;;24.67;12.02;;;;;;;1.35;86.79;98700.16;4934655;29;22073;-67
2021/01/08 10:12:55;;;;;;;22.92;11.70;;;;;;;1.32;87.10;98705.22;4936190;29;20035;-67
2021/01/08 10:15:36;;;;;;;20.20;11.73;;;;;;;1.39;88.95;98707.03;4936201;29;20090;-67
2021/01/08 10:18:11;;;;;;;22.85;12.05;;;;;;;1.34;86.49;98703.53;4936191;29;20031;-67
2021/01/08 10:20:42;;;;;;;35.60;16.25;;;;;;;1.44;85.94;98704.56;4935940;28;20066;-68
2021/01/08 10:23:12;;;;;;;36.42;16.02;;;;;;;1.32;86.92;98709.47;4935873;29;20035;-67
2021/01/08 10:25:38;;;;;;;32.70;17.30;;;;;;;1.33;86.25;98711.19;4936126;29;20702;-67
2021/01/08 10:28:14;;;;;;;14.90;10.50;;;;;;;1.38;85.92;98707.00;4935992;29;20039;-67
2021/01/08 10:30:40;;;;;;;14.43;7.93;;;;;;;1.50;85.77;98704.69;4934382;28;20035;-67
2021/01/08 10:33:07;;;;;;;9.43;7.85;;;;;;;1.35;86.40;98701.84;4936203;29;20039;-68
2021/01/08 10:35:32;;;;;;;12.07;7.32;;;;;;;1.60;85.56;98703.16;4936079;29;20509;-67
2021/01/08 10:37:58;;;;;;;9.52;6.10;;;;;;;1.24;86.83;98699.97;4935700;28;20041;-67
2021/01/08 10:40:23;;;;;;;8.10;6.30;;;;;;;1.40;86.16;98705.34;4936094;28;20038;-67
2021/01/08 10:42:50;;;;;;;11.93;7.25;;;;;;;1.35;86.96;98699.28;4935723;29;20042;-67
2021/01/08 10:45:16;;;;;;;17.08;10.77;;;;;;;1.55;86.47;98697.97;4934437;29;20417;-67
2021/01/08 10:47:41;;;;;;;15.20;10.57;;;;;;;1.18;88.14;98699.88;4935536;29;20122;-69
2021/01/08 10:50:07;;;;;;;17.20;10.10;;;;;;;1.43;86.59;98702.84;4935402;29;20027;-67
2021/01/08 10:52:32;;;;;;;14.88;9.95;;;;;;;0.89;89.67;98698.47;4935293;28;20027;-67
2021/01/08 10:54:57;;;;;;;14.57;8.77;;;;;;;0.98;88.05;98702.06;4935606;29;20062;-67
2021/01/08 10:57:23;;;;;;;12.07;7.57;;;;;;;1.28;87.87;98694.09;4935316;29;20532;-67
2021/01/08 10:59:48;;;;;;;7.53;6.05;;;;;;;1.26;87.86;98695.75;4935479;29;20123;-67
2021/01/08 11:02:13;;;;;;;10.27;6.60;;;;;;;1.29;87.33;98700.91;4935711;28;20031;-68
2021/01/08 11:04:42;;;;;;;8.68;6.13;;;;;;;1.41;87.58;98695.16;4935335;28;20035;-67
2021/01/08 11:07:09;;;;;;;10.00;5.30;;;;;;;1.49;86.99;98687.63;4935233;29;20809;-67
2021/01/08 11:09:34;;;;;;;6.55;5.20;;;;;;;1.04;88.08;98696.19;4934797;28;20279;-67
2021/01/08 11:12:00;;;;;;;7.70;5.35;;;;;;;1.37;87.45;98687.44;4934549;28;20034;-67
2021/01/08 11:14:25;;;;;;;7.28;5.28;;;;;;;1.10;88.20;98688.66;4935146;29;20158;-67
2021/01/08 11:16:50;;;;;;;7.63;5.07;;;;;;;1.21;87.88;98691.38;4935611;29;20035;-67
2021/01/08 11:19:16;;;;;;;6.38;5.05;;;;;;;1.41;86.50;98684.97;4935243;29;20067;-67
2021/01/08 11:21:41;;;;;;;8.48;5.28;;;;;;;1.18;87.80;98686.25;4934846;28;20898;-67
2021/01/08 11:24:07;;;;;;;8.02;5.40;;;;;;;1.36;86.71;98678.06;4935299;29;20059;-69
2021/01/08 11:26:32;;;;;;;8.00;5.15;;;;;;;1.18;87.01;98682.00;4934913;29;20606;-67
2021/01/08 11:28:58;;;;;;;7.60;5.38;;;;;;;1.40;87.39;98677.25;4934760;29;20027;-67
2021/01/08 11:31:36;;;;;;;14.57;5.90;;;;;;;1.09;88.02;98683.53;4934943;28;20023;-67
2021/01/08 11:34:03;;;;;;;14.65;5.20;;;;;;;1.27;86.81;98682.16;4934637;28;20569;-66
2021/01/08 11:36:28;;;;;;;7.60;5.10;;;;;;;1.33;87.13;98681.41;4934994;29;20027;-67
2021/01/08 11:38:54;;;;;;;8.85;6.18;;;;;;;1.35;87.00;98686.53;4934804;29;20082;-67
2021/01/08 11:41:20;;;;;;;7.05;5.93;;;;;;;1.13;87.63;98683.63;4934542;29;20038;-66
2021/01/08 11:43:46;;;;;;;8.38;5.70;;;;;;;1.15;88.27;98681.09;4934344;29;20071;-66
2021/01/08 11:46:18;;;;;;;8.85;6.13;;;;;;;1.44;87.52;98679.03;4934441;29;20046;-66
2021/01/08 11:48:44;;;;;;;10.82;6.22;;;;;;;1.18;87.70;98676.91;4934567;29;20128;-66
2021/01/08 11:51:13;;;;;;;8.75;5.78;;;;;;;1.40;86.61;98677.25;4934269;28;20456;-66
2021/01/08 11:53:45;;;;;;;8.57;6.85;;;;;;;1.37;87.47;98677.22;4934754;28;20032;-66
2021/01/08 11:56:12;;;;;;;10.43;6.40;;;;;;;1.52;87.43;98672.38;4934600;28;20058;-66
2021/01/08 11:58:42;;;;;;;8.10;6.60;;;;;;;1.33;87.07;98680.56;4934459;28;20023;-66
2021/01/08 12:01:08;;;;;;;8.65;5.93;;;;;;;1.26;87.78;98680.47;4933854;29;20035;-66
2021/01/08 12:03:36;;;;;;;7.63;5.53;;;;;;;1.34;87.59;98688.22;4932966;29;20077;-66
2021/01/08 12:06:03;;;;;;;9.98;5.70;;;;;;;1.40;86.00;98682.34;4934227;29;20121;-66
2021/01/08 12:08:28;;;;;;;18.60;11.95;;;;;;;1.25;86.69;98688.91;4934278;29;20095;-69
2021/01/08 12:10:53;;;;;;;11.40;7.22;;;;;;;1.25;86.75;98678.72;4933923;29;20264;-66
2021/01/08 12:13:19;;;;;;;8.93;6.75;;;;;;;1.32;87.86;98683.94;4933977;29;20039;-66
2021/01/08 12:15:44;;;;;;;10.75;6.55;;;;;;;1.17;87.30;98684.53;4934084;29;20066;-66
2021/01/08 12:18:10;;;;;;;12.18;6.65;;;;;;;1.12;87.00;98694.66;4933929;28;20069;-67
2021/01/08 12:20:37;;;;;;;9.80;6.75;;;;;;;1.09;87.50;98697.16;4933792;29;20090;-66
2021/01/08 12:23:05;;;;;;;14.93;6.57;;;;;;;1.23;86.92;98690.59;4933553;28;20067;-68
2021/01/08 12:25:35;;;;;;;8.50;6.75;;;;;;;1.20;86.89;98690.53;4932788;29;20519;-67
2021/01/08 12:28:11;;;;;;;9.30;6.32;;;;;;;1.19;86.17;98698.16;4933644;29;20086;-67
2021/01/08 12:30:37;;;;;;;13.63;6.90;;;;;;;1.18;86.43;98701.56;4933958;29;20500;-66
2021/01/08 12:33:04;;;;;;;11.88;6.38;;;;;;;1.20;85.04;98695.63;4933379;28;20130;-66
2021/01/08 12:35:30;;;;;;;14.60;7.32;;;;;;;1.29;85.86;98695.81;4934046;29;20031;-66
2021/01/08 12:37:56;;;;;;;9.02;6.35;;;;;;;1.29;85.05;98693.25;4933748;29;20111;-66
2021/01/08 12:40:22;;;;;;;12.80;6.70;;;;;;;1.32;84.93;98695.00;4933712;28;20158;-67
2021/01/08 12:42:48;;;;;;;12.15;7.25;;;;;;;1.32;85.26;98694.16;4932303;29;20059;-66
2021/01/08 12:45:15;;;;;;;10.43;6.90;;;;;;;1.17;84.65;98693.03;4933836;29;20039;-66
2021/01/08 12:47:41;;;;;;;10.30;6.70;;;;;;;1.21;84.64;98692.28;4933706;29;20027;-67
2021/01/08 12:50:07;;;;;;;14.48;7.53;;;;;;;1.23;84.06;98698.25;4933513;29;20042;-65
2021/01/08 12:52:32;;;;;;;8.57;5.95;;;;;;;1.22;83.75;98694.00;4922526;29;20142;-65
2021/01/08 12:54:58;;;;;;;11.75;6.65;;;;;;;1.36;83.38;98690.81;4932178;29;20545;-65
2021/01/08 12:57:23;;;;;;;11.77;6.93;;;;;;;1.35;83.55;98689.09;4933264;29;20039;-65
2021/01/08 12:59:49;;;;;;;9.02;6.22;;;;;;;1.31;82.91;98693.28;4933046;29;20031;-65
2021/01/08 13:02:14;;;;;;;8.73;5.72;;;;;;;1.28;83.72;98688.97;4932073;28;20045;-65
2021/01/08 13:04:40;;;;;;;9.68;5.50;;;;;;;1.25;82.84;98686.38;4933078;29;20508;-65
2021/01/08 13:07:06;;;;;;;6.43;4.72;;;;;;;1.19;80.87;98688.81;4933457;28;20094;-65
2021/01/08 13:09:31;;;;;;;10.13;5.60;;;;;;;1.17;81.29;98680.28;4933028;29;20421;-65
2021/01/08 13:11:56;;;;;;;8.48;4.47;;;;;;;1.25;81.58;98688.91;4932819;29;20066;-65
2021/01/08 13:14:22;;;;;;;8.55;4.95;;;;;;;1.33;82.11;98685.66;4933331;28;20536;-65
2021/01/08 13:16:54;;;;;;;7.63;4.32;;;;;;;1.23;81.40;98694.84;4956209;23;20058;-67
2021/01/08 13:19:20;;;;;;;7.43;4.72;;;;;;;1.33;81.60;98691.63;4931707;29;20494;-70
2021/01/08 13:21:47;;;;;;;7.65;5.15;;;;;;;1.35;81.49;98695.03;4931644;29;20058;-64
2021/01/08 13:24:13;;;;;;;9.15;5.88;;;;;;;1.40;82.02;98692.56;4931890;29;20031;-65
2021/01/08 13:26:38;;;;;;;6.18;4.55;;;;;;;1.44;80.88;98694.34;4932175;28;20110;-66
2021/01/08 13:29:03;;;;;;;5.95;4.47;;;;;;;1.45;80.84;98690.94;4931731;29;20727;-65
2021/01/08 13:31:29;;;;;;;6.50;4.57;;;;;;;1.36;80.31;98695.94;4931772;29;20051;-73
2021/01/08 13:33:57;;;;;;;7.85;4.78;;;;;;;1.36;80.94;98695.94;4932530;28;20016;-73
2021/01/08 13:36:24;;;;;;;6.63;4.05;;;;;;;1.28;80.78;98699.19;4931207;28;20031;-74
2021/01/08 13:38:50;;;;;;;7.25;5.20;;;;;;;1.16;81.59;98704.09;4931044;29;20027;-75
2021/01/08 13:41:15;;;;;;;7.57;5.00;;;;;;;1.32;81.33;98704.34;4930557;29;20035;-76
2021/01/08 13:43:41;;;;;;;6.63;4.70;;;;;;;1.24;80.39;98702.53;4932356;29;20035;-72
2021/01/08 13:46:10;;;;;;;6.55;4.60;;;;;;;1.23;81.46;98705.91;4934918;28;20028;-71
2021/01/08 13:48:35;;;;;;;6.18;4.72;;;;;;;1.36;80.29;98703.59;4935684;29;20095;-71
2021/01/08 13:51:01;;;;;;;7.85;5.13;;;;;;;1.34;81.55;98707.78;4935290;28;20086;-71
2021/01/08 13:53:26;;;;;;;7.90;4.97;;;;;;;0.95;82.57;98714.75;4935624;29;20110;-71
2021/01/08 13:55:52;;;;;;;9.85;5.25;;;;;;;1.17;82.12;98715.16;4934889;28;20035;-71
2021/01/08 13:58:17;;;;;;;9.65;5.47;;;;;;;0.94;82.60;98724.91;4935208;29;20293;-71
2021/01/08 14:00:43;;;;;;;9.90;5.78;;;;;;;0.73;83.71;98718.56;4934708;29;20055;-71
2021/01/08 14:03:09;;;;;;;9.93;5.43;;;;;;;0.66;82.37;98721.81;4935267;29;20121;-71
2021/01/08 14:05:34;;;;;;;10.07;5.30;;;;;;;1.06;82.47;98722.59;4935108;28;20064;-71
2021/01/08 14:07:59;;;;;;;7.93;5.22;;;;;;;1.09;83.38;98732.84;4935081;28;20130;-71
2021/01/08 14:10:25;;;;;;;6.90;4.97;;;;;;;1.05;82.18;98733.63;4935010;29;20499;-75
2021/01/08 14:12:50;;;;;;;8.50;5.55;;;;;;;1.15;81.63;98732.97;4934968;28;20038;-71
2021/01/08 14:15:15;;;;;;;15.30;5.70;;;;;;;1.20;81.83;98739.00;4932962;28;20039;-73
2021/01/08 14:17:41;;;;;;;8.20;5.60;;;;;;;1.20;80.63;98738.16;4933567;29;20496;-73
2021/01/08 14:20:08;;;;;;;7.10;5.60;;;;;;;1.05;81.43;98746.38;4933782;29;20075;-73
2021/01/08 14:22:33;;;;;;;9.70;5.93;;;;;;;1.11;83.17;98741.38;4933863;29;20032;-69
2021/01/08 14:24:59;;;;;;;10.18;6.50;;;;;;;1.04;82.35;98744.66;4934886;29;20036;-69
2021/01/08 14:27:24;;;;;;;8.35;5.70;;;;;;;1.07;81.36;98749.00;4934263;29;20059;-66
2021/01/08 14:29:49;;;;;;;9.27;6.32;;;;;;;1.06;83.56;98753.19;4934393;29;20428;-65
2021/01/08 14:32:15;;;;;;;7.60;5.75;;;;;;;1.21;82.48;98748.41;4934306;28;20023;-68
2021/01/08 14:34:40;;;;;;;9.32;5.32;;;;;;;1.12;81.68;98748.25;4934644;29;20044;-68
2021/01/08 14:37:06;;;;;;;7.47;5.05;;;;;;;1.02;81.39;98752.31;4934519;28;20397;-68
2021/01/08 14:39:31;;;;;;;11.73;6.38;;;;;;;0.67;82.93;98754.13;4934439;29;20106;-69
2021/01/08 14:41:57;;;;;;;11.13;6.40;;;;;;;0.85;81.95;98748.56;4933388;29;21383;-68
2021/01/08 14:44:22;;;;;;;10.40;6.18;;;;;;;0.71;83.70;98758.47;4934103;29;20031;-73
2021/01/08 14:46:47;;;;;;;10.13;6.50;;;;;;;0.77;83.24;98761.16;4934185;29;20028;-68
2021/01/08 14:49:15;;;;;;;9.40;6.07;;;;;;;0.56;84.61;98755.59;4934572;29;20046;-68
2021/01/08 14:51:40;;;;;;;10.15;5.45;;;;;;;0.96;82.35;98757.25;4933563;29;20039;-69
2021/01/08 14:54:06;;;;;;;9.38;6.05;;;;;;;0.71;82.53;98766.13;4934158;29;20032;-68
2021/01/08 14:56:42;;;;;;;9.98;6.40;;;;;;;0.92;83.65;98764.81;4933343;28;20493;-74
2021/01/08 14:59:07;;;;;;;13.65;8.27;;;;;;;0.59;84.78;98759.91;4934455;29;20113;-72
2021/01/08 15:01:32;;;;;;;12.63;7.20;;;;;;;0.67;83.85;98766.88;4933591;28;20027;-72
2021/01/08 15:03:58;;;;;;;11.18;7.45;;;;;;;0.80;84.29;98765.44;4933181;29;20086;-66
2021/01/08 15:06:23;;;;;;;11.80;6.75;;;;;;;0.53;84.44;98770.81;4933859;29;20038;-66
2021/01/08 15:08:48;;;;;;;11.65;7.18;;;;;;;0.70;84.20;98772.03;4908186;28;20067;-66
2021/01/08 15:11:14;;;;;;;12.50;7.20;;;;;;;0.68;83.55;98770.31;4912563;29;20066;-66
2021/01/08 15:13:40;;;;;;;22.83;11.02;;;;;;;0.60;84.35;98767.59;4934178;29;20031;-66
2021/01/08 15:16:06;;;;;;;12.65;6.68;;;;;;;0.69;83.73;98777.97;4914611;29;20420;-66
2021/01/08 15:18:31;;;;;;;15.45;7.60;;;;;;;0.59;84.48;98778.63;4936433;29;20114;-66
2021/01/08 15:20:58;;;;;;;9.38;6.28;;;;;;;0.55;83.65;98778.53;4915286;28;20095;-66
2021/01/08 15:23:23;;;;;;;10.40;6.20;;;;;;;0.58;84.50;98782.00;4935593;29;20062;-66
2021/01/08 15:25:49;;;;;;;11.75;7.90;;;;;;;0.69;83.30;98793.28;4913576;28;20419;-66
2021/01/08 15:28:14;;;;;;;14.82;9.93;;;;;;;0.52;84.93;98784.38;4937718;29;20031;-66
2021/01/08 15:30:39;;;;;;;13.88;8.50;;;;;;;0.55;84.26;98794.66;4909141;29;20194;-66
2021/01/08 15:33:05;;;;;;;14.27;8.88;;;;;;;0.58;84.35;98789.66;4933808;29;20034;-66
2021/01/08 15:35:30;;;;;;;12.18;8.15;;;;;;;0.41;84.44;98796.03;4913006;29;20043;-66
2021/01/08 15:37:56;;;;;;;9.43;6.53;;;;;;;0.55;84.37;98799.78;4939339;29;20114;-66
2021/01/08 15:40:21;;;;;;;14.90;7.72;;;;;;;0.51;84.52;98797.97;4908835;28;20051;-66
2021/01/08 15:42:47;;;;;;;13.18;7.60;;;;;;;0.39;84.80;98796.03;4939405;29;20050;-66
2021/01/08 15:45:12;;;;;;;10.40;6.68;;;;;;;0.29;84.35;98805.94;4909225;28;20523;-66
2021/01/08 15:47:38;;;;;;;12.85;7.03;;;;;;;0.31;85.03;98801.75;4933228;29;20031;-66
2021/01/08 15:50:03;;;;;;;16.73;9.10;;;;;;;0.52;83.96;98807.34;4909181;29;20498;-66
2021/01/08 15:52:29;;;;;;;12.50;7.78;;;;;;;0.42;83.52;98805.41;4933122;29;20591;-66
2021/01/08 15:54:54;;;;;;;10.05;6.50;;;;;;;0.53;83.12;98806.50;4909194;28;20035;-67
2021/01/08 15:57:19;;;;;;;14.55;7.93;;;;;;;0.62;83.51;98811.81;4932986;29;20023;-66
2021/01/08 15:59:45;;;;;;;17.35;8.35;;;;;;;0.62;84.49;98811.81;4910790;28;20027;-67
2021/01/08 16:02:10;;;;;;;12.73;7.50;;;;;;;0.77;83.65;98821.47;4932435;29;20051;-67
2021/01/08 16:04:35;;;;;;;14.73;7.65;;;;;;;0.71;84.47;98822.22;4932271;29;20417;-68
2021/01/08 16:07:01;;;;;;;13.57;7.90;;;;;;;0.57;84.84;98827.84;4916903;28;20050;-66
2021/01/08 16:09:26;;;;;;;12.45;7.50;;;;;;;0.62;86.15;98827.09;4931474;29;20144;-67
2021/01/08 16:11:51;;;;;;;14.40;8.18;;;;;;;0.64;86.33;98822.91;4922556;28;20051;-66
2021/01/08 16:14:16;;;;;;;16.40;8.30;;;;;;;0.42;87.33;98828.34;4932995;29;20074;-66
2021/01/08 16:16:42;;;;;;;12.95;8.30;;;;;;;0.30;88.13;98835.72;4908065;29;20047;-66
2021/01/08 16:19:07;;;;;;;16.77;10.02;;;;;;;0.30;88.50;98839.13;4932958;29;20036;-66
2021/01/08 16:21:32;;;;;;;17.75;11.23;;;;;;;0.27;88.92;98833.09;4921923;28;20063;-66
2021/01/08 16:23:58;;;;;;;14.98;9.88;;;;;;;0.27;89.78;98835.63;4934366;28;20035;-66
2021/01/08 16:26:24;;;;;;;43.30;23.38;;;;;;;0.19;89.89;98846.53;4908162;28;20074;-66
2021/01/08 16:28:50;;;;;;;20.92;12.90;;;;;;;0.21;90.46;98847.41;4933148;28;20034;-66
2021/01/08 16:31:15;;;;;;;23.35;11.82;;;;;;;0.14;90.61;98848.06;4915388;28;20493;-66
2021/01/08 16:33:40;;;;;;;22.38;11.15;;;;;;;0.11;91.20;98858.19;4935171;29;20028;-66
2021/01/08 16:36:06;;;;;;;28.88;13.70;;;;;;;0.20;91.44;98852.47;4918455;28;20046;-66
2021/01/08 16:38:32;;;;;;;27.00;12.75;;;;;;;0.09;91.86;98864.06;4935921;28;20031;-66
2021/01/08 16:40:57;;;;;;;30.23;15.98;;;;;;;0.06;92.68;98864.88;4908154;29;20049;-66
2021/01/08 16:43:22;;;;;;;21.73;13.20;;;;;;;0.08;93.01;98868.31;4932459;29;20023;-66
2021/01/08 16:45:48;;;;;;;65.57;28.52;;;;;;;0.39;92.86;98861.44;4913066;28;20039;-66
2021/01/08 16:48:13;;;;;;;43.67;21.58;;;;;;;0.33;92.02;98868.91;4936823;29;20106;-66
2021/01/08 16:50:40;;;;;;;58.78;26.38;;;;;;;0.42;92.43;98866.56;4913734;28;20397;-72
2021/01/08 16:53:05;;;;;;;119.97;49.05;;;;;;;0.38;93.22;98873.28;4936817;28;20564;-75
2021/01/08 16:55:31;;;;;;;46.33;23.15;;;;;;;0.31;93.63;98873.09;4907745;29;20055;-71
2021/01/08 16:57:56;;;;;;;36.30;18.88;;;;;;;0.09;93.05;98880.22;4932241;29;20034;-67
2021/01/08 17:00:24;;;;;;;37.92;20.25;;;;;;;0.01;93.53;98885.97;4910688;29;20050;-67
2021/01/08 17:02:49;;;;;;;28.23;15.30;;;;;;;-0.10;93.07;98888.19;4938767;29;20034;-67
2021/01/08 17:05:15;;;;;;;28.38;14.93;;;;;;;-0.13;93.54;98881.38;4909907;28;20050;-71
2021/01/08 17:07:40;;;;;;;25.83;14.57;;;;;;;-0.16;94.06;98882.97;4941739;28;20039;-73
2021/01/08 17:10:06;;;;;;;23.40;12.55;;;;;;;-0.10;94.19;98886.50;4909123;29;20163;-72
2021/01/08 17:12:32;;;;;;;32.97;19.45;;;;;;;-0.12;93.56;98890.72;4940227;29;20035;-72
2021/01/08 17:14:57;;;;;;;27.35;15.13;;;;;;;-0.12;93.99;98892.41;4908624;28;20441;-72
2021/01/08 17:17:22;;;;;;;21.45;12.82;;;;;;;-0.11;94.38;98891.56;4941079;29;20074;-72
2021/01/08 17:19:48;;;;;;;22.20;12.35;;;;;;;-0.07;93.50;98890.84;4925798;28;20123;-66
2021/01/08 17:22:13;;;;;;;31.25;18.27;;;;;;;-0.21;93.47;98889.63;4924849;29;20134;-69
2021/01/08 17:24:40;;;;;;;29.92;14.88;;;;;;;-0.11;93.92;98886.47;4932094;29;20134;-68
2021/01/08 17:27:05;;;;;;;22.85;12.75;;;;;;;-0.15;92.90;98894.84;4917223;28;20054;-70
2021/01/08 17:29:33;;;;;;;18.88;12.55;;;;;;;-0.18;93.09;98895.66;4932231;29;20031;-70
2021/01/08 17:32:00;;;;;;;18.70;12.38;;;;;;;-0.02;94.03;98896.91;4919576;28;20043;-72
2021/01/08 17:34:26;;;;;;;22.30;12.95;;;;;;;-0.04;93.16;98899.44;4932463;29;20054;-76
2021/01/08 17:36:53;;;;;;;18.85;11.52;;;;;;;-0.09;92.96;98900.13;4917163;28;20749;-72